Time;durP1;ratioP1;P1;durP2;ratioP2;P2;SDS_P1;SDS_P2;PMS_P1;PMS_P2;Temp;Humidity;BMP_temperature;BMP_pressure;BME280_temperature;BME280_humidity;BME280_pressure;Samples;Min_cycle;Max_cycle;Signal;HPM_P1;HPM_P2
2024/02/23 00:01:29;;;;;;;;;;;;;;;10.94;58.49;99525.84;5091474;28;19927;-85
2024/02/23 00:03:57;;;;;;;;;;;;;;;10.90;59.14;99521.94;5091646;28;19934;-85
2024/02/23 00:06:27;;;;;;;;;;;;;;;10.87;59.08;99520.47;5091662;28;20381;-85
2024/02/23 00:08:54;;;;;;;;;;;;;;;10.83;58.35;99520.00;5091731;28;19912;-85
2024/02/23 00:11:19;;;;;;;;;;;;;;;10.75;59.55;99512.16;5090243;28;20400;-85
2024/02/23 00:13:45;;;;;;;;;;;;;;;10.74;58.83;99515.00;5091532;28;19918;-85
2024/02/23 00:16:11;;;;;;;;;;;;;;;10.71;59.61;99510.88;5090231;28;19904;-85
2024/02/23 00:18:36;;;;;;;;;;;;;;;10.68;58.72;99507.78;5090170;28;19916;-85
2024/02/23 00:21:01;;;;;;;;;;;;;;;10.62;59.32;99517.25;5091312;28;20303;-85
2024/02/23 00:23:28;;;;;;;;;;;;;;;10.62;59.66;99516.41;5090060;28;19998;-85
2024/02/23 00:25:54;;;;;;;;;;;;;;;10.59;59.48;99508.84;5091175;28;19912;-85
2024/02/23 00:28:19;;;;;;;;;;;;;;;10.56;59.10;99504.75;5091573;28;19935;-85
2024/02/23 00:30:44;;;;;;;;;;;;;;;10.54;59.85;99495.38;5091262;28;20002;-85
2024/02/23 00:33:10;;;;;;;;;;;;;;;10.52;59.46;99494.72;5091270;28;19916;-85
2024/02/23 00:35:35;;;;;;;;;;;;;;;10.46;60.09;99502.38;5091354;28;19955;-85
2024/02/23 00:38:00;;;;;;;;;;;;;;;10.43;59.42;99491.34;5091148;28;20438;-85
2024/02/23 00:40:26;;;;;;;;;;;;;;;10.41;59.13;99494.16;5090040;28;19919;-85
2024/02/23 00:42:51;;;;;;;;;;;;;;;10.38;59.26;99486.56;5091332;28;19916;-85
2024/02/23 00:45:17;;;;;;;;;;;;;;;10.36;60.10;99485.94;5091234;28;20003;-85
2024/02/23 00:47:43;;;;;;;;;;;;;;;10.32;60.30;99489.91;5091101;28;19965;-85
2024/02/23 00:50:08;;;;;;;;;;;;;;;10.31;59.34;99490.09;5094755;28;19912;-85
2024/02/23 00:52:33;;;;;;;;;;;;;;;10.24;59.15;99492.63;5095054;28;20002;-85
2024/02/23 00:54:59;;;;;;;;;;;;;;;10.23;60.13;99495.44;5093457;28;19969;-85
2024/02/23 00:57:29;;;;;;;;;;;;;;;10.19;59.52;99492.31;5094709;28;19908;-85
2024/02/23 00:59:54;;;;;;;;;;;;;;;10.16;60.38;99487.38;5094815;28;19919;-85
2024/02/23 01:02:20;;;;;;;;;;;;;;;10.15;59.71;99491.00;5093272;28;19920;-85
2024/02/23 01:04:45;;;;;;;;;;;;;;;10.12;60.42;99486.91;5094779;28;19912;-85
2024/02/23 01:07:10;;;;;;;;;;;;;;;10.10;60.47;99483.63;5094893;28;20385;-85
2024/02/23 01:09:35;;;;;;;;;;;;;;;10.07;61.10;99486.63;5094839;28;20007;-85
2024/02/23 01:12:01;;;;;;;;;;;;;;;10.04;60.31;99494.06;5093454;28;19912;-85
2024/02/23 01:14:26;;;;;;;;;;;;;;;10.00;60.92;99487.50;5094611;28;19969;-86
2024/02/23 01:16:51;;;;;;;;;;;;;;;9.98;60.15;99485.03;5093351;28;19920;-85
2024/02/23 01:19:16;;;;;;;;;;;;;;;9.96;60.58;99486.22;5093348;28;19912;-85
2024/02/23 01:21:42;;;;;;;;;;;;;;;9.93;60.72;99479.47;5093189;28;19927;-85
2024/02/23 01:24:07;;;;;;;;;;;;;;;9.94;60.55;99475.03;5094859;28;19934;-85
2024/02/23 01:26:32;;;;;;;;;;;;;;;9.94;60.87;99465.28;5092935;28;19912;-86
2024/02/23 01:28:58;;;;;;;;;;;;;;;9.95;59.87;99460.84;5093032;28;19912;-85
2024/02/23 01:31:23;;;;;;;;;;;;;;;9.94;59.95;99461.84;5092838;28;20363;-85
2024/02/23 01:33:50;;;;;;;;;;;;;;;9.91;60.48;99459.53;5094123;28;19916;-85
2024/02/23 01:36:15;;;;;;;;;;;;;;;9.86;61.31;99460.88;5094069;28;19966;-86
2024/02/23 01:38:42;;;;;;;;;;;;;;;9.84;59.91;99459.44;5094049;28;20296;-85
2024/02/23 01:41:08;;;;;;;;;;;;;;;9.82;60.32;99451.69;5094331;28;19919;-86
2024/02/23 01:43:33;;;;;;;;;;;;;;;9.77;60.80;99442.66;5094471;28;19912;-86
2024/02/23 01:45:58;;;;;;;;;;;;;;;9.77;60.27;99437.38;5092985;28;19912;-85
2024/02/23 01:48:24;;;;;;;;;;;;;;;9.74;60.82;99443.00;5094221;28;20369;-86
2024/02/23 01:50:49;;;;;;;;;;;;;;;9.74;60.90;99432.47;5092826;28;19912;-86
2024/02/23 01:53:15;;;;;;;;;;;;;;;9.75;60.13;99440.19;5094379;28;20370;-85
2024/02/23 01:55:45;;;;;;;;;;;;;;;9.75;60.19;99434.94;5092659;28;19916;-85
2024/02/23 01:58:10;;;;;;;;;;;;;;;9.76;60.40;99435.75;5094130;28;20446;-85
2024/02/23 02:00:36;;;;;;;;;;;;;;;9.73;59.91;99431.66;5094151;28;19916;-85
2024/02/23 02:03:02;;;;;;;;;;;;;;;9.67;60.31;99434.16;5092403;28;19928;-85
2024/02/23 02:05:28;;;;;;;;;;;;;;;9.65;60.06;99441.41;5092498;28;19965;-85
2024/02/23 02:07:58;;;;;;;;;;;;;;;9.62;60.86;99436.47;5093848;28;19913;-85
2024/02/23 02:10:24;;;;;;;;;;;;;;;9.59;60.60;99435.00;5092428;28;19919;-85
2024/02/23 02:12:49;;;;;;;;;;;;;;;9.56;61.01;99441.44;5093542;28;19912;-85
2024/02/23 02:15:14;;;;;;;;;;;;;;;9.56;60.71;99435.34;5093650;28;19916;-85
2024/02/23 02:17:40;;;;;;;;;;;;;;;9.56;60.57;99438.00;5092429;28;19954;-85
2024/02/23 02:20:07;;;;;;;;;;;;;;;9.50;61.40;99434.22;5093545;28;19912;-86
2024/02/23 02:22:33;;;;;;;;;;;;;;;9.50;60.78;99439.50;5092208;28;19963;-85
2024/02/23 02:24:58;;;;;;;;;;;;;;;9.46;60.88;99438.22;5093709;28;20445;-86
2024/02/23 02:27:23;;;;;;;;;;;;;;;9.47;60.30;99445.13;5093606;28;19912;-86
2024/02/23 02:29:52;;;;;;;;;;;;;;;9.42;61.02;99436.09;5093512;28;19965;-85
2024/02/23 02:32:17;;;;;;;;;;;;;;;9.39;61.02;99433.81;5092265;28;19919;-86
2024/02/23 02:34:42;;;;;;;;;;;;;;;9.38;60.69;99435.63;5093564;28;19912;-86
2024/02/23 02:37:07;;;;;;;;;;;;;;;9.38;60.91;99434.81;5092200;28;19912;-86
2024/02/23 02:39:33;;;;;;;;;;;;;;;9.35;61.14;99428.06;5093394;28;20309;-85
2024/02/23 02:41:58;;;;;;;;;;;;;;;9.35;60.95;99432.50;5092854;28;19920;-86
2024/02/23 02:44:23;;;;;;;;;;;;;;;9.35;60.59;99430.69;5091549;28;19962;-85
2024/02/23 02:46:49;;;;;;;;;;;;;;;9.32;61.49;99428.41;5092755;28;20339;-85
2024/02/23 02:49:14;;;;;;;;;;;;;;;9.30;61.69;99427.75;5092621;28;20304;-85
2024/02/23 02:51:39;;;;;;;;;;;;;;;9.31;61.26;99426.78;5091330;28;19912;-85
2024/02/23 02:54:05;;;;;;;;;;;;;;;9.30;60.61;99430.41;5092583;28;20435;-85
2024/02/23 02:56:30;;;;;;;;;;;;;;;9.26;61.04;99430.91;5091284;28;19958;-86
2024/02/23 02:58:56;;;;;;;;;;;;;;;9.27;60.41;99435.19;5092673;28;19959;-85
2024/02/23 03:01:21;;;;;;;;;;;;;;;9.25;61.04;99430.09;5092366;28;20309;-85
2024/02/23 03:03:46;;;;;;;;;;;;;;;9.25;60.66;99435.38;5091554;28;19957;-85
2024/02/23 03:06:12;;;;;;;;;;;;;;;9.22;60.54;99435.72;5092383;28;19923;-85
2024/02/23 03:08:37;;;;;;;;;;;;;;;9.21;60.61;99434.88;5092525;28;19912;-86
2024/02/23 03:11:02;;;;;;;;;;;;;;;9.18;61.23;99432.59;5091750;28;19912;-85
2024/02/23 03:13:28;;;;;;;;;;;;;;;9.16;60.81;99434.59;5090814;28;19912;-85
2024/02/23 03:15:53;;;;;;;;;;;;;;;9.12;61.10;99427.19;5092363;28;19935;-85
2024/02/23 03:18:18;;;;;;;;;;;;;;;9.12;60.94;99425.38;5092180;28;20381;-86
2024/02/23 03:20:44;;;;;;;;;;;;;;;9.12;61.27;99427.19;5090932;28;19912;-86
2024/02/23 03:23:09;;;;;;;;;;;;;;;9.09;61.17;99428.34;5090915;28;19912;-86
2024/02/23 03:25:35;;;;;;;;;;;;;;;9.07;61.16;99421.63;5090704;28;19955;-84
2024/02/23 03:28:00;;;;;;;;;;;;;;;9.07;60.90;99418.97;5090978;28;19912;-85
2024/02/23 03:30:25;;;;;;;;;;;;;;;9.08;60.88;99415.34;5092510;28;19912;-85
2024/02/23 03:32:51;;;;;;;;;;;;;;;9.04;60.96;99422.78;5090926;28;19918;-85
2024/02/23 03:35:16;;;;;;;;;;;;;;;9.04;60.85;99417.50;5092063;28;19919;-85
2024/02/23 03:37:41;;;;;;;;;;;;;;;9.06;60.76;99417.34;5090621;28;19912;-85
2024/02/23 03:40:07;;;;;;;;;;;;;;;9.07;60.76;99414.53;5090805;28;19915;-85
2024/02/23 03:42:32;;;;;;;;;;;;;;;9.09;60.39;99422.28;5092080;28;20065;-86
2024/02/23 03:44:58;;;;;;;;;;;;;;;9.07;60.35;99418.97;5091989;28;20013;-86
2024/02/23 03:47:23;;;;;;;;;;;;;;;9.04;60.64;99424.59;5092191;28;20358;-85
2024/02/23 03:49:48;;;;;;;;;;;;;;;9.02;60.79;99434.47;5090635;28;19912;-86
2024/02/23 03:52:13;;;;;;;;;;;;;;;9.01;60.93;99430.19;5090554;28;20388;-85
2024/02/23 03:54:39;;;;;;;;;;;;;;;9.03;60.48;99417.69;5090554;28;19913;-86
2024/02/23 03:57:04;;;;;;;;;;;;;;;8.99;60.60;99421.66;5090181;28;20007;-85
2024/02/23 03:59:30;;;;;;;;;;;;;;;9.00;60.55;99423.28;5090344;28;19912;-86
2024/02/23 04:01:55;;;;;;;;;;;;;;;8.95;60.44;99426.44;5091319;28;19927;-86
2024/02/23 04:04:20;;;;;;;;;;;;;;;8.90;60.79;99426.09;5090287;28;19919;-85
2024/02/23 04:06:46;;;;;;;;;;;;;;;8.87;60.43;99423.81;5091548;28;20007;-86
2024/02/23 04:09:11;;;;;;;;;;;;;;;8.83;60.96;99422.50;5090882;28;19916;-86
2024/02/23 04:11:36;;;;;;;;;;;;;;;8.83;60.90;99435.66;5091422;28;20404;-86
2024/02/23 04:14:02;;;;;;;;;;;;;;;8.81;60.56;99427.13;5091348;28;19915;-86
2024/02/23 04:16:27;;;;;;;;;;;;;;;8.78;60.60;99430.91;5091678;28;19955;-86
2024/02/23 04:18:53;;;;;;;;;;;;;;;8.72;60.39;99426.31;5090233;28;19912;-86
2024/02/23 04:21:18;;;;;;;;;;;;;;;8.66;60.14;99426.19;5089882;28;19928;-85
2024/02/23 04:23:43;;;;;;;;;;;;;;;8.58;60.18;99430.47;5091588;28;19912;-86
2024/02/23 04:26:09;;;;;;;;;;;;;;;8.54;60.10;99418.63;5095478;28;20254;-86
2024/02/23 04:28:34;;;;;;;;;;;;;;;8.49;60.25;99420.13;5095568;28;19912;-86
2024/02/23 04:31:00;;;;;;;;;;;;;;;8.46;60.20;99415.19;5095604;28;19912;-86
2024/02/23 04:33:25;;;;;;;;;;;;;;;8.42;60.00;99417.34;5095468;28;19948;-86
2024/02/23 04:35:51;;;;;;;;;;;;;;;8.36;60.47;99415.38;5094080;28;19986;-86
2024/02/23 04:38:16;;;;;;;;;;;;;;;8.33;60.11;99414.88;5095364;28;19916;-86
2024/02/23 04:40:41;;;;;;;;;;;;;;;8.31;59.91;99417.66;5094037;28;19916;-85
2024/02/23 04:43:06;;;;;;;;;;;;;;;8.24;60.19;99427.22;5095289;28;19917;-86
2024/02/23 04:45:32;;;;;;;;;;;;;;;8.14;60.07;99434.41;5094016;28;19912;-86
2024/02/23 04:47:57;;;;;;;;;;;;;;;8.02;60.38;99428.66;5095086;28;19951;-86
2024/02/23 04:50:23;;;;;;;;;;;;;;;7.82;61.02;99424.72;5095293;28;19915;-86
2024/02/23 04:52:48;;;;;;;;;;;;;;;7.72;61.33;99422.25;5095081;28;19919;-86
2024/02/23 04:55:13;;;;;;;;;;;;;;;7.65;61.33;99429.94;5094868;28;19912;-86
2024/02/23 04:57:39;;;;;;;;;;;;;;;7.61;61.67;99435.69;5093577;28;19955;-86
2024/02/23 05:00:07;;;;;;;;;;;;;;;7.58;61.90;99438.66;5094951;28;19909;-85
2024/02/23 05:02:35;;;;;;;;;;;;;;;7.60;60.97;99442.75;5093358;28;19920;-85
2024/02/23 05:05:00;;;;;;;;;;;;;;;7.64;60.77;99449.34;5093417;28;20068;-86
2024/02/23 05:07:25;;;;;;;;;;;;;;;7.67;60.94;99445.56;5093225;28;19977;-86
2024/02/23 05:09:51;;;;;;;;;;;;;;;7.62;61.08;99458.34;5093405;28;19955;-86
2024/02/23 05:12:16;;;;;;;;;;;;;;;7.58;60.57;99465.75;5095030;28;19912;-86
2024/02/23 05:14:41;;;;;;;;;;;;;;;7.56;61.04;99464.25;5094894;28;19984;-86
2024/02/23 05:17:06;;;;;;;;;;;;;;;7.55;60.56;99471.31;5094938;28;19912;-86
2024/02/23 05:19:32;;;;;;;;;;;;;;;7.53;60.46;99468.03;5094918;28;19912;-86
2024/02/23 05:21:57;;;;;;;;;;;;;;;7.49;60.62;99471.13;5094765;28;20366;-86
2024/02/23 05:24:22;;;;;;;;;;;;;;;7.47;60.62;99471.28;5094625;28;19950;-86
2024/02/23 05:26:48;;;;;;;;;;;;;;;7.45;60.77;99477.69;5094244;28;19935;-86
2024/02/23 05:29:17;;;;;;;;;;;;;;;7.31;61.38;99479.09;5094234;28;19912;-86
2024/02/23 05:31:48;;;;;;;;;;;;;;;7.21;61.12;99491.53;5092786;28;19926;-86
2024/02/23 05:34:13;;;;;;;;;;;;;;;7.17;61.45;99484.94;5093740;28;19912;-86
2024/02/23 05:36:39;;;;;;;;;;;;;;;7.18;61.13;99479.53;5092835;28;19912;-87
2024/02/23 05:39:04;;;;;;;;;;;;;;;7.17;61.61;99483.13;5094242;28;20003;-86
2024/02/23 05:41:30;;;;;;;;;;;;;;;7.17;60.75;99490.19;5092872;28;19916;-86
2024/02/23 05:43:55;;;;;;;;;;;;;;;7.18;60.93;99487.41;5093062;28;19959;-86
2024/02/23 05:46:21;;;;;;;;;;;;;;;7.23;61.09;99484.31;5092854;28;20293;-87
2024/02/23 05:48:46;;;;;;;;;;;;;;;7.23;61.18;99493.00;5094111;28;20309;-86
2024/02/23 05:51:11;;;;;;;;;;;;;;;7.24;61.25;99492.03;5092884;28;19982;-86
2024/02/23 05:53:37;;;;;;;;;;;;;;;7.27;60.39;99485.63;5092816;28;19912;-86
2024/02/23 05:56:02;;;;;;;;;;;;;;;7.28;60.62;99498.63;5092342;28;19916;-86
2024/02/23 05:58:28;;;;;;;;;;;;;;;7.30;61.65;99490.56;5093603;28;20021;-86
2024/02/23 06:00:54;;;;;;;;;;;;;;;7.30;61.44;99501.09;5093551;28;19952;-86
2024/02/23 06:03:19;;;;;;;;;;;;;;;7.30;61.60;99499.28;5093209;28;20320;-86
2024/02/23 06:05:44;;;;;;;;;;;;;;;7.29;61.37;99508.13;5101000;28;20012;-86
2024/02/23 06:08:10;;;;;;;;;;;;;;;7.29;60.99;99510.75;5092348;28;19919;-86
2024/02/23 06:10:35;;;;;;;;;;;;;;;7.31;61.21;99508.81;5093382;28;19916;-86
2024/02/23 06:13:00;;;;;;;;;;;;;;;7.32;61.53;99515.69;5093283;28;19908;-86
2024/02/23 06:15:25;;;;;;;;;;;;;;;7.37;61.08;99509.97;5099876;28;19908;-85
2024/02/23 06:17:51;;;;;;;;;;;;;;;7.36;62.01;99516.22;5112472;28;19923;-85
2024/02/23 06:20:16;;;;;;;;;;;;;;;7.35;61.96;99519.81;5113848;28;19934;-85
2024/02/23 06:22:42;;;;;;;;;;;;;;;7.32;63.01;99520.94;5100147;28;19978;-86
2024/02/23 06:25:07;;;;;;;;;;;;;;;7.29;63.65;99526.53;5113437;28;19923;-86
2024/02/23 06:27:32;;;;;;;;;;;;;;;7.32;62.58;99520.13;5105495;28;19908;-86
2024/02/23 06:29:58;;;;;;;;;;;;;;;7.37;62.96;99528.34;5091800;28;19912;-86
2024/02/23 06:32:23;;;;;;;;;;;;;;;7.42;61.82;99528.72;5093296;28;19912;-86
2024/02/23 06:34:48;;;;;;;;;;;;;;;7.45;63.28;99528.41;5092863;28;19944;-86
2024/02/23 06:37:13;;;;;;;;;;;;;;;7.52;62.60;99525.97;5092678;28;20001;-86
2024/02/23 06:39:39;;;;;;;;;;;;;;;7.58;63.16;99530.59;5091550;28;19912;-85
2024/02/23 06:42:04;;;;;;;;;;;;;;;7.63;62.06;99523.06;5108351;28;19915;-86
2024/02/23 06:44:30;;;;;;;;;;;;;;;7.66;62.75;99535.88;5105581;28;19923;-85
2024/02/23 06:46:55;;;;;;;;;;;;;;;7.68;62.64;99535.72;5101991;28;20418;-86
2024/02/23 06:49:20;;;;;;;;;;;;;;;7.71;63.33;99535.41;5092768;28;19951;-85
2024/02/23 06:51:46;;;;;;;;;;;;;;;7.78;63.27;99539.88;5108025;28;19911;-86
2024/02/23 06:54:11;;;;;;;;;;;;;;;7.84;63.16;99533.97;5101863;28;19912;-86
2024/02/23 06:56:36;;;;;;;;;;;;;;;7.91;62.67;99536.78;5109713;28;19916;-86
2024/02/23 06:59:02;;;;;;;;;;;;;;;7.96;62.58;99529.22;5103343;28;20384;-85
2024/02/23 07:01:27;;;;;;;;;;;;;;;8.01;62.91;99516.41;5104771;28;19927;-85
2024/02/23 07:03:52;;;;;;;;;;;;;;;8.06;64.35;99516.75;5109812;28;19920;-86
2024/02/23 07:06:21;;;;;;;;;;;;;;;8.17;63.55;99513.81;5111219;28;19916;-85
2024/02/23 07:08:46;;;;;;;;;;;;;;;8.25;62.97;99513.84;5107746;28;20018;-85
2024/02/23 07:11:11;;;;;;;;;;;;;;;8.33;62.97;99504.31;5103360;28;20359;-86
2024/02/23 07:13:37;;;;;;;;;;;;;;;8.37;63.02;99505.66;5113216;28;19938;-86
2024/02/23 07:16:02;;;;;;;;;;;;;;;8.42;62.84;99506.78;5093518;28;20387;-85
2024/02/23 07:18:28;;;;;;;;;;;;;;;8.48;63.14;99506.13;5091310;28;19947;-86
2024/02/23 07:20:53;;;;;;;;;;;;;;;8.51;62.38;99497.09;5097816;28;19922;-85
2024/02/23 07:23:18;;;;;;;;;;;;;;;8.58;62.67;99508.59;5106422;28;19916;-86
2024/02/23 07:25:43;;;;;;;;;;;;;;;8.67;62.75;99512.03;5092510;28;20062;-86
2024/02/23 07:28:09;;;;;;;;;;;;;;;8.76;63.21;99511.03;5091157;28;19916;-86
2024/02/23 07:30:37;;;;;;;;;;;;;;;8.84;63.02;99497.84;5108124;28;19918;-86
2024/02/23 07:33:02;;;;;;;;;;;;;;;8.91;62.63;99496.19;5095274;28;19954;-86
2024/02/23 07:35:27;;;;;;;;;;;;;;;8.94;63.76;99492.44;5091867;28;19952;-85
2024/02/23 07:37:53;;;;;;;;;;;;;;;8.92;62.58;99497.88;5085828;28;19969;-86
2024/02/23 07:40:18;;;;;;;;;;;;;;;9.01;62.49;99506.56;5076362;28;19917;-86
2024/02/23 07:42:43;;;;;;;;;;;;;;;9.10;62.67;99497.66;5075429;28;19959;-85
2024/02/23 07:45:09;;;;;;;;;;;;;;;9.11;62.70;99505.38;5093692;28;19927;-86
2024/02/23 07:47:34;;;;;;;;;;;;;;;9.16;61.02;99507.50;5076901;28;19916;-86
2024/02/23 07:50:00;;;;;;;;;;;;;;;9.14;62.25;99499.78;5085647;28;19952;-86
2024/02/23 07:52:25;;;;;;;;;;;;;;;9.20;61.86;99500.91;5097524;28;19912;-85
2024/02/23 07:54:54;;;;;;;;;;;;;;;9.21;62.34;99519.19;5091515;28;21065;-86
2024/02/23 07:57:20;;;;;;;;;;;;;;;9.24;61.96;99500.41;5074687;28;20416;-86
2024/02/23 07:59:45;;;;;;;;;;;;;;;9.26;62.70;99505.50;5072568;28;19916;-86
2024/02/23 08:02:11;;;;;;;;;;;;;;;9.37;62.22;99507.75;5082969;28;19947;-86
2024/02/23 08:04:36;;;;;;;;;;;;;;;9.49;61.65;99505.56;5083910;28;19916;-86
2024/02/23 08:07:01;;;;;;;;;;;;;;;9.59;61.26;99514.09;5091439;28;20064;-86
2024/02/23 08:09:26;;;;;;;;;;;;;;;9.65;60.56;99508.13;5092471;28;19915;-86
2024/02/23 08:11:52;;;;;;;;;;;;;;;9.67;62.42;99514.06;5076822;28;19923;-84
2024/02/23 08:14:17;;;;;;;;;;;;;;;9.73;61.11;99517.84;5076986;28;20312;-86
2024/02/23 08:16:42;;;;;;;;;;;;;;;9.78;62.06;99512.84;5086181;28;19923;-85
2024/02/23 08:19:08;;;;;;;;;;;;;;;9.91;61.14;99513.09;5074118;28;19937;-85
2024/02/23 08:21:33;;;;;;;;;;;;;;;10.05;61.47;99512.34;5071568;28;19912;-85
2024/02/23 08:23:58;;;;;;;;;;;;;;;10.13;61.87;99514.13;5075901;28;19916;-86
2024/02/23 08:26:24;;;;;;;;;;;;;;;10.23;61.43;99509.47;5073081;28;20008;-86
2024/02/23 08:28:49;;;;;;;;;;;;;;;10.30;60.70;99507.75;5076167;28;20374;-85
2024/02/23 08:31:14;;;;;;;;;;;;;;;10.40;60.60;99500.44;5075014;28;19999;-86
2024/02/23 08:33:39;;;;;;;;;;;;;;;10.48;60.24;99518.03;5074425;28;19912;-85
2024/02/23 08:36:05;;;;;;;;;;;;;;;10.53;59.49;99510.41;5075533;28;19916;-86
2024/02/23 08:38:31;;;;;;;;;;;;;;;10.60;59.19;99510.50;5078538;28;19917;-86
2024/02/23 08:40:56;;;;;;;;;;;;;;;10.68;60.18;99518.34;5070938;28;20026;-85
2024/02/23 08:43:21;;;;;;;;;;;;;;;10.71;59.65;99510.88;5069886;28;19924;-85
2024/02/23 08:45:47;;;;;;;;;;;;;;;10.73;59.78;99516.81;5070656;28;20000;-84
2024/02/23 08:48:14;;;;;;;;;;;;;;;10.83;59.42;99509.44;5070447;28;20373;-86
2024/02/23 08:50:40;;;;;;;;;;;;;;;10.97;59.54;99501.72;5082831;28;20438;-84
2024/02/23 08:53:05;;;;;;;;;;;;;;;11.06;59.46;99504.09;5082223;28;19963;-84
2024/02/23 08:55:31;;;;;;;;;;;;;;;11.20;58.78;99509.59;5073824;28;19913;-84
2024/02/23 08:57:57;;;;;;;;;;;;;;;11.24;58.62;99501.09;5072398;28;19917;-85
2024/02/23 09:00:24;;;;;;;;;;;;;;;11.29;58.62;99504.00;5093874;28;20343;-85
2024/02/23 09:02:50;;;;;;;;;;;;;;;11.35;58.55;99503.28;5084174;28;20367;-85
2024/02/23 09:05:15;;;;;;;;;;;;;;;11.40;58.53;99508.00;5090579;28;19916;-84
2024/02/23 09:07:40;;;;;;;;;;;;;;;11.48;58.32;99504.44;5088506;28;19912;-84
2024/02/23 09:10:06;;;;;;;;;;;;;;;11.52;58.17;99503.91;5092814;28;19916;-84
2024/02/23 09:12:31;;;;;;;;;;;;;;;11.59;57.83;99503.97;5094158;28;19939;-85
2024/02/23 09:14:56;;;;;;;;;;;;;;;11.65;58.01;99496.13;5097661;28;20076;-84
2024/02/23 09:17:23;;;;;;;;;;;;;;;11.77;57.95;99489.38;5101895;28;19947;-84
2024/02/23 09:19:48;;;;;;;;;;;;;;;11.87;57.80;99486.41;5094596;28;19912;-84
2024/02/23 09:22:13;;;;;;;;;;;;;;;11.47;57.20;99405.81;5074386;28;19923;-85
2024/02/23 09:24:39;;;;;;;;;;;;;;;12.04;57.19;99485.19;5073946;28;20375;-84
2024/02/23 09:27:04;;;;;;;;;;;;;;;12.16;57.03;99493.44;5085581;28;19916;-84
2024/02/23 09:29:30;;;;;;;;;;;;;;;12.25;56.55;99481.72;5099656;28;20016;-84
2024/02/23 09:31:55;;;;;;;;;;;;;;;12.32;56.82;99477.31;5101517;28;19926;-83
2024/02/23 09:34:20;;;;;;;;;;;;;;;12.38;56.20;99481.84;5097186;28;19998;-83
2024/02/23 09:36:45;;;;;;;;;;;;;;;12.46;56.11;99478.22;5089700;28;20326;-83
2024/02/23 09:39:11;;;;;;;;;;;;;;;12.57;56.13;99468.94;5082385;28;19916;-83
2024/02/23 09:41:37;;;;;;;;;;;;;;;12.64;56.27;99465.34;5077627;28;20381;-83
2024/02/23 09:44:03;;;;;;;;;;;;;;;12.76;55.79;99462.16;5082131;28;19920;-83
2024/02/23 09:46:29;;;;;;;;;;;;;;;12.88;55.81;99460.63;5104145;28;20305;-83
2024/02/23 09:48:54;;;;;;;;;;;;;;;12.94;55.74;99468.59;5097205;27;20386;-84
2024/02/23 09:51:20;;;;;;;;;;;;;;;13.11;55.79;99465.63;5083238;28;19912;-84
2024/02/23 09:53:47;;;;;;;;;;;;;;;13.22;55.55;99457.16;5074303;28;20342;-84
2024/02/23 09:56:17;;;;;;;;;;;;;;;13.35;55.15;99463.34;5065341;28;19916;-84
2024/02/23 09:58:42;;;;;;;;;;;;;;;13.48;54.87;99452.00;5051002;28;19913;-83
2024/02/23 10:01:11;;;;;;;;;;;;;;;13.58;54.63;99451.59;5044116;28;20475;-83
2024/02/23 10:03:37;;;;;;;;;;;;;;;13.73;54.06;99451.44;5063095;28;20011;-83
2024/02/23 10:06:02;;;;;;;;;;;;;;;13.86;54.32;99452.28;5048515;28;20019;-83
2024/02/23 10:08:30;;;;;;;;;;;;;;;13.99;53.97;99446.19;5055356;28;19925;-83
2024/02/23 10:10:56;;;;;;;;;;;;;;;14.12;53.74;99434.75;5047183;28;20393;-84
2024/02/23 10:13:23;;;;;;;;;;;;;;;14.23;52.89;99436.84;5049353;28;19912;-83
2024/02/23 10:15:49;;;;;;;;;;;;;;;14.36;53.01;99433.34;5050934;28;19912;-83
2024/02/23 10:18:14;;;;;;;;;;;;;;;14.48;52.52;99413.97;5046290;28;19920;-83
2024/02/23 10:20:40;;;;;;;;;;;;;;;14.57;52.52;99418.03;5042981;28;19917;-82
2024/02/23 10:23:05;;;;;;;;;;;;;;;14.68;52.85;99403.31;5045902;28;20382;-83
2024/02/23 10:25:33;;;;;;;;;;;;;;;14.83;53.08;99398.56;5052653;28;19923;-83
2024/02/23 10:27:59;;;;;;;;;;;;;;;14.97;52.10;99396.72;5045306;28;20326;-83
2024/02/23 10:30:26;;;;;;;;;;;;;;;15.13;52.47;99406.88;5057586;28;19917;-83
2024/02/23 10:32:54;;;;;;;;;;;;;;;15.26;52.22;99393.53;5052648;28;19967;-83
2024/02/23 10:35:21;;;;;;;;;;;;;;;15.39;52.06;99391.81;5052831;28;19953;-83
2024/02/23 10:37:49;;;;;;;;;;;;;;;15.52;51.61;99376.59;5051320;28;20309;-83
2024/02/23 10:40:16;;;;;;;;;;;;;;;15.61;51.18;99373.75;5047823;28;19919;-83
2024/02/23 10:42:44;;;;;;;;;;;;;;;15.67;51.43;99371.03;5050731;28;20390;-83
2024/02/23 10:45:09;;;;;;;;;;;;;;;15.81;51.36;99367.25;5045144;28;20476;-82
2024/02/23 10:47:36;;;;;;;;;;;;;;;15.94;51.46;99347.69;5041047;28;19917;-83
2024/02/23 10:50:02;;;;;;;;;;;;;;;16.03;50.85;99357.03;5046446;28;20311;-82
2024/02/23 10:52:28;;;;;;;;;;;;;;;16.12;50.44;99347.75;5033794;28;19921;-83
2024/02/23 10:54:54;;;;;;;;;;;;;;;16.04;50.61;99344.53;5030933;28;19951;-83
2024/02/23 10:57:19;;;;;;;;;;;;;;;16.12;49.81;99338.94;5032838;28;20309;-83
2024/02/23 10:59:46;;;;;;;;;;;;;;;16.17;50.20;99334.59;5041253;28;19927;-83
2024/02/23 11:02:11;;;;;;;;;;;;;;;16.26;49.65;99348.44;5048908;28;19921;-83
2024/02/23 11:04:37;;;;;;;;;;;;;;;16.36;50.04;99324.78;5034526;28;19917;-83
2024/02/23 11:07:07;;;;;;;;;;;;;;;16.47;49.81;99321.41;5051491;28;19917;-83
2024/02/23 11:09:33;;;;;;;;;;;;;;;16.74;49.55;99323.78;5034673;28;19996;-83
2024/02/23 11:11:58;;;;;;;;;;;;;;;17.00;49.08;99312.78;5059175;28;20045;-83
2024/02/23 11:14:32;;;;;;;;;;;;;;;17.26;48.33;99305.50;5063506;28;20282;-83
2024/02/23 11:16:57;;;;;;;;;;;;;;;17.36;47.55;99308.44;5031688;28;20314;-83
2024/02/23 11:19:31;;;;;;;;;;;;;;;17.49;47.39;99297.56;5047028;28;19916;-83
2024/02/23 11:21:58;;;;;;;;;;;;;;;17.66;46.57;99293.22;5053407;28;20403;-83
2024/02/23 11:24:25;;;;;;;;;;;;;;;17.72;46.32;99294.16;5067490;28;19959;-83
2024/02/23 11:26:55;;;;;;;;;;;;;;;17.83;46.17;99281.84;5035305;28;19917;-84
2024/02/23 11:29:21;;;;;;;;;;;;;;;17.94;45.77;99284.56;5030642;28;19913;-83
2024/02/23 11:31:47;;;;;;;;;;;;;;;18.04;44.16;99283.97;5030342;28;19970;-84
2024/02/23 11:34:12;;;;;;;;;;;;;;;18.06;44.33;99272.00;5031881;28;19921;-84
2024/02/23 11:36:38;;;;;;;;;;;;;;;18.15;44.60;99275.13;5060010;28;20286;-84
2024/02/23 11:39:05;;;;;;;;;;;;;;;18.10;44.04;99265.16;5054950;28;19924;-82
2024/02/23 11:41:30;;;;;;;;;;;;;;;17.95;44.89;99269.34;5054716;28;20015;-83
2024/02/23 11:43:56;;;;;;;;;;;;;;;17.80;44.13;99264.44;5050128;28;19995;-83
2024/02/23 11:46:22;;;;;;;;;;;;;;;17.67;44.60;99257.44;5050548;28;19917;-83
2024/02/23 11:48:53;;;;;;;;;;;;;;;17.67;44.26;99249.44;5050436;28;19913;-84
2024/02/23 11:51:18;;;;;;;;;;;;;;;17.75;44.70;99267.78;5032841;28;20390;-83
2024/02/23 11:53:44;;;;;;;;;;;;;;;17.77;43.65;99256.88;5035575;28;19936;-83
2024/02/23 11:56:09;;;;;;;;;;;;;;;17.72;43.88;99252.22;5059761;28;19966;-82
2024/02/23 11:58:35;;;;;;;;;;;;;;;17.73;43.44;99253.88;5053309;28;19970;-83
2024/02/23 12:01:02;;;;;;;;;;;;;;;17.72;44.33;99251.41;5036086;28;19913;-83
2024/02/23 12:03:28;;;;;;;;;;;;;;;17.66;44.12;99265.66;5030585;28;19957;-83
2024/02/23 12:05:53;;;;;;;;;;;;;;;17.65;44.35;99240.00;5042688;28;20011;-82
2024/02/23 12:08:19;;;;;;;;;;;;;;;17.63;44.08;99240.25;5037131;28;20484;-83
2024/02/23 12:10:44;;;;;;;;;;;;;;;17.63;44.45;99240.25;5046395;28;19916;-82
2024/02/23 12:13:10;;;;;;;;;;;;;;;17.63;44.20;99234.91;5037899;28;20402;-83
2024/02/23 12:15:35;;;;;;;;;;;;;;;17.62;44.50;99246.63;5057166;28;19917;-82
2024/02/23 12:18:03;;;;;;;;;;;;;;;17.61;44.53;99236.19;5066541;28;20428;-83
2024/02/23 12:20:28;;;;;;;;;;;;;;;17.62;44.19;99227.94;5053959;28;19913;-83
2024/02/23 12:22:56;;;;;;;;;;;;;;;17.66;44.57;99217.59;5060432;28;20329;-83
2024/02/23 12:25:22;;;;;;;;;;;;;;;17.67;43.69;99232.59;5030853;28;19917;-83
2024/02/23 12:27:53;;;;;;;;;;;;;;;17.67;42.33;99249.44;5031243;28;19913;-83
2024/02/23 12:30:18;;;;;;;;;;;;;;;17.71;43.88;99229.25;5031048;28;19920;-83
2024/02/23 12:32:43;;;;;;;;;;;;;;;17.70;44.01;99232.97;5030896;28;19913;-83
2024/02/23 12:35:12;;;;;;;;;;;;;;;17.68;44.08;99232.38;5030937;28;19957;-83
2024/02/23 12:37:37;;;;;;;;;;;;;;;17.67;44.14;99222.75;5029762;28;19913;-83
2024/02/23 12:40:02;;;;;;;;;;;;;;;17.66;44.60;99226.47;5030970;28;19931;-83
2024/02/23 12:42:28;;;;;;;;;;;;;;;17.63;44.54;99231.41;5046043;28;20417;-83
2024/02/23 12:44:53;;;;;;;;;;;;;;;17.60;44.45;99222.00;5032495;28;19920;-83